createdAt,value
2023-02-01T00:44:56.082Z,2.02
2023-02-01T00:45:56.043Z,2.04
2023-02-01T00:46:56.117Z,2.09
2023-02-01T00:47:56.004Z,2.05
2023-02-01T00:48:55.988Z,1.92
2023-02-01T00:49:55.970Z,1.98
2023-02-01T00:50:55.969Z,1.94
2023-02-01T00:51:55.937Z,1.98
2023-02-01T00:52:55.907Z,1.99
2023-02-01T00:53:55.885Z,2.01
2023-02-01T00:54:55.861Z,2.07
2023-02-01T00:55:55.871Z,2.02
2023-02-01T00:56:55.836Z,2.00
2023-02-01T00:57:55.810Z,2.02
2023-02-01T00:58:55.807Z,2.06
2023-02-01T00:59:55.775Z,2.03
2023-02-01T01:00:55.790Z,2.01
2023-02-01T01:01:55.800Z,2.04
2023-02-01T01:02:55.718Z,2.01
2023-02-01T01:03:55.710Z,2.05
2023-02-01T01:04:55.696Z,2.05
2023-02-01T01:05:55.667Z,2.05
2023-02-01T01:06:55.675Z,2.05
2023-02-01T01:07:55.640Z,2.06
2023-02-01T01:08:55.640Z,2.02
2023-02-01T01:09:55.621Z,2.07
2023-02-01T01:10:55.587Z,2.01
2023-02-01T01:11:55.578Z,2.00
2023-02-01T01:12:55.566Z,2.05
2023-02-01T01:13:55.547Z,2.12
2023-02-01T01:14:55.541Z,2.13
2023-02-01T01:15:55.562Z,2.09
2023-02-01T01:16:55.518Z,2.10
2023-02-01T01:17:55.502Z,2.10
2023-02-01T01:18:55.480Z,2.11
2023-02-01T01:19:55.467Z,2.11
2023-02-01T01:20:55.442Z,2.14
2023-02-01T01:21:55.433Z,2.16
2023-02-01T01:22:55.419Z,2.23
2023-02-01T01:23:55.401Z,2.28
2023-02-01T01:24:55.373Z,2.23
2023-02-01T01:25:55.366Z,2.24
2023-02-01T01:26:55.405Z,2.24
2023-02-01T01:27:55.325Z,2.25
2023-02-01T01:28:55.314Z,2.25
2023-02-01T01:29:55.301Z,2.23
2023-02-01T01:30:55.323Z,2.18
2023-02-01T01:31:55.308Z,2.22
2023-02-01T01:32:55.239Z,2.22
2023-02-01T01:33:55.227Z,2.18
2023-02-01T01:34:55.210Z,2.23
2023-02-01T01:35:55.187Z,2.21
2023-02-01T01:36:55.189Z,2.19
2023-02-01T01:37:55.171Z,2.21
2023-02-01T01:38:55.159Z,2.27
2023-02-01T01:39:55.130Z,2.27
2023-02-01T01:40:55.120Z,2.17
2023-02-01T01:41:55.131Z,2.18
2023-02-01T01:42:55.092Z,2.28
2023-02-01T01:43:55.072Z,2.22
2023-02-01T01:44:55.073Z,2.24
2023-02-01T01:45:55.049Z,2.28
2023-02-01T01:46:55.120Z,2.25
2023-02-01T01:47:55.024Z,2.23
2023-02-01T01:48:55.011Z,2.28
2023-02-01T01:49:55.006Z,2.30
2023-02-01T02:07:54.775Z,2.20
2023-02-01T03:23:01.801Z,0.50
2023-02-01T03:24:01.753Z,0.50
2023-02-01T03:25:01.692Z,0.50
2023-02-01T03:26:01.637Z,0.50
2023-02-01T03:27:01.571Z,0.50
2023-02-01T03:28:01.522Z,0.51
2023-02-01T03:29:01.471Z,0.51
2023-02-01T03:30:01.400Z,0.51
2023-02-01T03:31:01.389Z,0.51
2023-02-01T03:32:01.364Z,0.52
2023-02-01T03:33:01.295Z,0.52
2023-02-01T03:34:01.202Z,0.52
2023-02-01T03:35:01.137Z,0.53
2023-02-01T03:36:01.081Z,0.54
2023-02-01T03:37:01.029Z,0.54
2023-02-01T03:38:00.966Z,0.54
2023-02-01T03:39:00.927Z,0.54
2023-02-01T03:40:00.868Z,0.55
2023-02-01T03:41:00.816Z,0.56
2023-02-01T03:42:00.767Z,0.55
2023-02-01T03:43:00.735Z,0.54
2023-02-01T03:44:00.648Z,0.55
2023-02-01T03:45:00.590Z,0.53
2023-02-01T03:46:00.542Z,0.56
2023-02-01T03:47:00.479Z,0.55
2023-02-01T03:48:00.419Z,0.54
2023-02-01T03:49:00.369Z,0.55
2023-02-01T03:50:00.308Z,0.56
2023-02-01T03:51:00.268Z,0.55
2023-02-01T03:52:00.242Z,0.56
2023-02-01T03:53:00.149Z,0.56
2023-02-01T03:54:00.138Z,0.57
2023-02-01T03:55:00.045Z,0.56
2023-02-01T03:56:00.029Z,0.55
2023-02-01T03:56:59.942Z,0.56
2023-02-01T03:57:59.882Z,0.56
2023-02-01T03:58:59.978Z,0.55
2023-02-01T03:59:59.769Z,0.55
2023-02-01T04:00:59.765Z,0.56
2023-02-01T04:01:59.686Z,0.55
2023-02-01T04:02:59.600Z,0.56
2023-02-01T04:03:59.550Z,0.55
2023-02-01T04:04:59.511Z,0.54
2023-02-01T04:05:59.438Z,0.55
2023-02-01T04:06:59.385Z,0.56
2023-02-01T04:07:59.337Z,0.57
2023-02-01T04:08:59.287Z,0.57
2023-02-01T04:09:59.223Z,0.58
2023-02-01T04:10:59.169Z,0.56
2023-02-01T04:11:59.113Z,0.58
2023-02-01T04:12:59.081Z,0.57
2023-02-01T04:13:59.004Z,0.58
2023-02-01T04:14:58.961Z,0.58
2023-02-01T04:15:58.885Z,0.57
2023-02-01T04:16:58.837Z,0.58
2023-02-01T04:17:58.789Z,0.57
2023-02-01T04:18:58.722Z,0.55
2023-02-01T04:22:58.478Z,0.55
2023-02-01T04:23:58.418Z,0.57
2023-02-01T04:24:58.365Z,0.58
2023-02-01T04:25:58.311Z,0.57
2023-02-01T04:26:58.254Z,0.57
2023-02-01T04:27:58.185Z,0.58
2023-02-01T04:28:58.143Z,0.56
2023-02-01T04:29:58.562Z,0.56
2023-02-01T04:30:58.172Z,0.57
2023-02-01T04:31:58.009Z,0.58
2023-02-01T04:32:57.951Z,0.58
2023-02-01T04:33:57.885Z,0.58
2023-02-01T04:34:57.826Z,0.59
2023-02-01T04:35:57.774Z,0.60
2023-02-01T04:36:57.731Z,0.61
2023-02-01T04:37:57.657Z,0.61
2023-02-01T04:38:57.624Z,0.61
2023-02-01T04:39:57.555Z,0.61
2023-02-01T04:40:57.497Z,0.61
2023-02-01T04:41:57.433Z,0.63
2023-02-01T04:42:57.377Z,0.62
2023-02-01T04:43:57.326Z,0.64
2023-02-01T04:44:57.286Z,0.62
2023-02-01T04:45:57.269Z,0.62
2023-02-01T04:46:57.183Z,0.61
2023-02-01T04:47:57.144Z,0.61
2023-02-01T04:48:57.088Z,0.63
2023-02-01T04:49:57.042Z,0.65
2023-02-01T04:50:57.012Z,0.65
2023-02-01T04:51:56.958Z,0.65
2023-02-01T04:52:56.881Z,0.65
2023-02-01T04:53:56.877Z,0.65
2023-02-01T04:54:59.040Z,0.65
2023-02-01T04:55:56.695Z,0.65
2023-02-01T04:56:56.648Z,0.65
2023-02-01T04:57:56.597Z,0.64
2023-02-01T04:58:56.556Z,0.65
2023-02-01T04:59:56.486Z,0.67
2023-02-01T05:00:56.547Z,0.68
2023-02-01T05:01:56.396Z,0.68
2023-02-01T05:02:56.334Z,0.67
2023-02-01T05:03:56.275Z,0.68
2023-02-01T05:04:56.241Z,0.68
2023-02-01T05:05:56.159Z,0.68
2023-02-01T05:06:56.103Z,0.68
2023-02-01T05:07:56.081Z,0.69
2023-02-01T05:08:56.001Z,0.70
2023-02-01T05:09:55.952Z,0.70
2023-02-01T05:10:55.890Z,0.71
2023-02-01T05:11:55.822Z,0.71
2023-02-01T05:12:55.781Z,0.72
2023-02-01T05:13:55.717Z,0.73
2023-02-01T05:14:55.673Z,0.72
2023-02-01T05:15:55.739Z,0.73
2023-02-01T05:16:55.562Z,0.71
2023-02-01T05:17:55.503Z,0.71
2023-02-01T05:18:55.455Z,0.73
2023-02-01T05:19:55.408Z,0.74
2023-02-01T05:20:55.342Z,0.74
2023-02-01T05:21:55.283Z,0.73
2023-02-01T05:22:55.252Z,0.75
2023-02-01T05:23:55.183Z,0.73
2023-02-01T05:24:55.156Z,0.75
2023-02-01T05:25:55.068Z,0.74
2023-02-01T05:26:55.055Z,0.75
2023-02-01T05:27:54.963Z,0.78
2023-02-01T05:28:54.922Z,0.78
2023-02-01T05:29:54.865Z,0.77
2023-02-01T05:30:54.977Z,0.78
2023-02-01T05:31:54.920Z,0.77
2023-02-01T05:32:54.707Z,0.79
2023-02-01T05:33:54.656Z,0.79
2023-02-01T05:34:54.603Z,0.79
2023-02-01T05:35:54.559Z,0.81
2023-02-01T05:36:54.504Z,0.81
2023-02-01T05:37:54.456Z,0.81
2023-02-01T05:38:54.400Z,0.82
2023-02-01T05:39:54.390Z,0.82
2023-02-01T05:40:54.308Z,0.83
2023-02-01T05:41:54.254Z,0.83
2023-02-01T05:42:54.204Z,0.84
2023-02-01T05:43:54.173Z,0.83
2023-02-01T05:44:54.099Z,0.82
2023-02-01T05:45:54.096Z,0.83
2023-02-01T05:46:54.002Z,0.83
2023-02-01T05:47:53.946Z,0.82
2023-02-01T05:48:53.908Z,0.81
2023-02-01T05:49:53.847Z,0.83
2023-02-01T05:50:53.804Z,0.83
2023-02-01T05:51:53.745Z,0.82
2023-02-01T05:52:53.691Z,0.83
2023-02-01T05:53:53.640Z,0.80
2023-02-01T05:54:53.611Z,0.83
2023-02-01T05:55:53.530Z,0.83
2023-02-01T05:56:53.471Z,0.84
2023-02-01T05:57:53.416Z,0.85
2023-02-01T05:58:53.380Z,0.85
2023-02-01T05:59:53.313Z,0.87
2023-02-01T06:00:53.263Z,0.88
2023-02-01T06:01:53.203Z,0.87
2023-02-01T06:02:53.302Z,0.89
2023-02-01T06:03:53.112Z,0.90
2023-02-01T06:04:53.059Z,0.90
2023-02-01T06:05:53.013Z,0.92
2023-02-01T06:06:52.950Z,0.90
2023-02-01T06:07:52.901Z,0.91
2023-02-01T06:08:52.835Z,0.91
2023-02-01T06:09:52.784Z,0.93
2023-02-01T06:10:52.732Z,0.92
2023-02-01T06:11:52.679Z,0.94
2023-02-01T06:12:52.641Z,0.93
2023-02-01T06:13:52.585Z,0.95
2023-02-01T06:14:52.536Z,0.94
2023-02-01T06:15:52.500Z,0.98
2023-02-01T06:16:52.426Z,0.97
2023-02-01T06:17:52.380Z,0.98
2023-02-01T06:18:52.351Z,0.96
2023-02-01T06:19:52.280Z,0.99
2023-02-01T06:20:52.246Z,0.98
2023-02-01T06:21:52.185Z,0.99
2023-02-01T06:22:52.132Z,1.00
2023-02-01T06:23:52.071Z,1.01
2023-02-01T06:24:52.038Z,1.01
2023-02-01T06:25:51.985Z,1.02
2023-02-01T09:06:43.147Z,0.70
2023-02-01T09:11:42.817Z,0.65
2023-02-01T09:12:42.743Z,0.66
2023-02-01T09:13:42.696Z,0.66
2023-02-01T09:14:42.636Z,0.66
2023-02-01T09:15:42.590Z,0.64
2023-02-01T09:16:42.488Z,0.66
2023-02-01T09:17:42.430Z,0.67
2023-02-01T09:18:50.882Z,0.67
2023-02-01T09:20:42.219Z,0.63
2023-02-01T09:21:42.155Z,0.60
2023-02-01T09:22:42.088Z,0.58
2023-02-01T09:23:42.056Z,0.56
2023-02-01T11:16:35.232Z,0.51
2023-02-01T11:17:35.070Z,0.51
2023-02-01T11:18:35.010Z,0.50
2023-02-01T11:19:34.971Z,0.50
2023-02-01T11:20:34.905Z,0.50
2023-02-01T11:21:34.854Z,0.51
2023-02-01T11:23:34.705Z,0.50
2023-02-01T11:24:34.677Z,0.51
2023-02-01T11:25:34.600Z,0.50
2023-02-01T11:26:34.616Z,0.51
2023-02-01T11:27:34.756Z,0.50
2023-02-01T11:28:34.417Z,0.50
2023-02-01T11:29:34.354Z,0.50
2023-02-01T11:30:34.343Z,0.50
2023-02-01T11:31:34.489Z,0.49
2023-02-01T11:32:34.174Z,0.49
2023-02-01T11:33:34.103Z,0.51
2023-02-01T11:34:34.051Z,0.50
2023-02-01T11:35:34.000Z,0.51
2023-02-01T11:36:33.949Z,0.51
2023-02-01T11:37:33.874Z,0.52
2023-02-01T11:38:33.809Z,0.50
2023-02-01T11:39:33.753Z,0.51
2023-02-01T11:40:33.680Z,0.50
2023-02-01T11:41:33.630Z,0.50
2023-02-01T11:42:33.561Z,0.51
2023-02-01T11:43:33.498Z,0.52
2023-02-01T11:44:33.444Z,0.53
2023-02-01T11:45:33.367Z,0.52
2023-02-01T11:46:33.351Z,0.54
2023-02-01T11:47:33.242Z,0.52
2023-02-01T11:48:33.181Z,0.51
2023-02-01T11:49:33.131Z,0.52
2023-02-01T11:50:33.063Z,0.51
2023-02-01T11:51:33.000Z,0.50
2023-02-01T11:52:32.985Z,0.52
2023-02-01T11:53:32.867Z,0.52
2023-02-01T11:54:32.825Z,0.52
2023-02-01T11:55:32.767Z,0.51
2023-02-01T11:56:32.697Z,0.50
2023-02-01T11:57:32.631Z,0.48
2023-02-01T11:58:32.570Z,0.50
2023-02-01T11:59:32.495Z,0.52
2023-02-01T12:00:32.446Z,0.52
2023-02-01T12:01:32.455Z,0.52
2023-02-01T12:02:32.307Z,0.53
2023-02-01T12:03:32.318Z,0.53
2023-02-01T12:04:32.176Z,0.53
2023-02-01T12:05:32.116Z,0.53
2023-02-01T12:06:32.090Z,0.51
2023-02-01T12:07:32.001Z,0.52
2023-02-01T12:18:32.229Z,0.52
2023-02-01T12:57:28.928Z,1.23
2023-02-01T12:58:28.891Z,1.15
2023-02-01T12:59:28.798Z,1.12
2023-02-01T13:00:28.740Z,1.07
2023-02-01T13:01:28.747Z,1.04
2023-02-01T13:02:28.706Z,1.03
2023-02-01T13:03:28.577Z,1.00
2023-02-01T13:04:28.540Z,0.97
2023-02-01T13:05:28.444Z,0.95
2023-02-01T13:06:28.395Z,0.92
2023-02-01T13:07:28.344Z,0.96
2023-02-01T13:08:28.265Z,0.94
2023-02-01T13:09:28.228Z,0.94
2023-02-01T13:10:28.201Z,0.92
2023-02-01T13:11:28.097Z,0.92
2023-02-01T13:12:28.033Z,0.92
2023-02-01T13:13:27.961Z,0.88
2023-02-01T13:14:27.902Z,0.88
2023-02-01T13:15:27.847Z,0.87
2023-02-01T13:16:27.836Z,0.84
2023-02-01T13:17:27.725Z,0.86
2023-02-01T13:18:27.653Z,0.83
2023-02-01T13:19:27.585Z,0.84
2023-02-01T13:20:27.520Z,0.81
2023-02-01T13:21:27.484Z,0.79
2023-02-01T13:22:27.418Z,0.77
2023-02-01T13:23:27.355Z,0.75
2023-02-01T13:24:27.271Z,0.73
2023-02-01T13:25:27.198Z,0.75
2023-02-01T13:26:27.181Z,0.76
2023-02-01T13:27:27.090Z,0.75
2023-02-01T13:28:27.019Z,0.73
2023-02-01T13:29:26.948Z,0.73
2023-02-01T13:30:26.971Z,0.72
2023-02-01T13:31:26.931Z,0.71
2023-02-01T13:33:50.435Z,0.71
2023-02-01T13:34:26.647Z,0.71
2023-02-01T13:35:26.583Z,0.69
2023-02-01T13:36:26.515Z,0.70
2023-02-01T13:37:26.465Z,0.69
2023-02-01T13:38:26.405Z,0.69
2023-02-01T13:39:26.368Z,0.71
2023-02-01T13:40:26.263Z,0.68
2023-02-01T13:41:26.204Z,0.65
2023-02-01T13:42:26.138Z,0.67
2023-02-01T13:43:26.098Z,0.67
2023-02-01T13:44:26.020Z,0.65
2023-02-01T13:45:26.544Z,0.65
2023-02-01T13:46:26.001Z,0.64
2023-02-01T13:47:25.840Z,0.64
2023-02-01T13:48:25.785Z,0.65
2023-02-01T13:49:25.704Z,0.65
2023-02-01T13:50:25.672Z,0.67
2023-02-01T13:51:25.597Z,0.64
2023-02-01T13:52:25.541Z,0.64
2023-02-01T13:53:25.471Z,0.62
2023-02-01T13:54:25.444Z,0.62
2023-02-01T13:55:25.827Z,0.63
2023-02-01T13:56:25.295Z,0.63
2023-02-01T13:57:25.256Z,0.62
2023-02-01T13:58:25.223Z,0.62
2023-02-01T13:59:25.108Z,0.62
2023-02-01T14:00:25.069Z,0.63
2023-02-01T14:01:25.102Z,0.64
2023-02-01T14:02:24.937Z,0.63
2023-02-01T14:03:24.894Z,0.64
2023-02-01T14:04:24.871Z,0.63
2023-02-01T14:05:25.217Z,0.63
2023-02-01T14:06:24.701Z,0.64
2023-02-01T14:07:24.635Z,0.66
2023-02-01T14:08:24.595Z,0.66
2023-02-01T14:09:24.524Z,0.67
2023-02-01T14:10:24.778Z,0.67
2023-02-01T14:11:24.424Z,0.67
2023-02-01T14:12:24.369Z,0.68
2023-02-01T14:13:24.310Z,0.67
2023-02-01T14:44:22.647Z,0.83
2023-02-01T14:48:22.416Z,0.81
2023-02-01T14:49:23.303Z,0.80
2023-02-01T14:50:22.322Z,0.80
2023-02-01T14:51:22.253Z,0.80
2023-02-01T14:52:22.198Z,0.79
2023-02-01T14:53:22.119Z,0.81
2023-02-01T14:54:22.095Z,0.79
2023-02-01T14:55:22.509Z,0.78
2023-02-01T17:31:13.699Z,0.77
2023-02-01T17:32:13.640Z,0.77
2023-02-01T17:33:22.382Z,0.74
2023-02-01T17:34:14.481Z,0.74
2023-02-01T17:35:13.436Z,0.74
2023-02-01T17:36:13.372Z,0.75
2023-02-01T17:37:13.339Z,0.75
2023-02-01T17:38:13.283Z,0.75
2023-02-01T17:39:13.227Z,0.75
2023-02-01T17:40:13.192Z,0.76
2023-02-01T17:41:13.147Z,0.78
2023-02-01T17:42:13.096Z,0.77
2023-02-01T17:43:13.029Z,0.78
2023-02-01T17:44:12.979Z,0.77
2023-02-01T17:45:12.932Z,0.79
2023-02-01T17:46:12.950Z,0.76
2023-02-01T17:47:12.835Z,0.74
2023-02-01T17:48:12.786Z,0.74
2023-02-01T17:49:12.741Z,0.74
2023-02-01T17:50:12.694Z,0.75
2023-02-01T17:51:12.633Z,0.75
2023-02-01T17:52:12.595Z,0.75
2023-02-01T17:53:12.537Z,0.75
2023-02-01T17:54:12.474Z,0.71
2023-02-01T17:55:12.469Z,0.73
2023-02-01T17:56:12.371Z,0.74
2023-02-01T17:57:12.335Z,0.72
2023-02-01T17:58:12.269Z,0.71
2023-02-01T17:59:12.218Z,0.71
2023-02-01T18:00:12.170Z,0.72
2023-02-01T18:01:12.140Z,0.71
2023-02-01T18:02:12.095Z,0.73
2023-02-01T18:03:12.035Z,0.70
2023-02-01T18:04:11.974Z,0.70
2023-02-01T20:14:04.387Z,0.65
2023-02-01T20:15:04.337Z,0.68
2023-02-01T20:16:04.310Z,0.68
2023-02-01T20:17:04.220Z,0.69
2023-02-01T20:18:04.175Z,0.67
2023-02-01T20:19:04.127Z,0.70
2023-02-01T20:20:04.077Z,0.69
2023-02-01T20:21:04.022Z,0.68
2023-02-01T20:22:03.975Z,0.66
2023-02-01T20:23:03.926Z,0.68
2023-02-01T20:24:03.877Z,0.67
2023-02-01T20:25:03.902Z,0.68
2023-02-01T20:26:04.616Z,0.67
2023-02-01T20:27:04.562Z,0.67
2023-02-01T20:28:04.527Z,0.66
2023-02-01T20:29:04.489Z,0.67
2023-02-01T20:30:04.415Z,0.67
2023-02-01T20:31:04.390Z,0.66
2023-02-01T20:32:04.295Z,0.67
2023-02-01T20:33:04.244Z,0.67
2023-02-01T20:34:04.186Z,0.69
2023-02-01T20:35:04.143Z,0.67
2023-02-01T20:36:04.093Z,0.68
2023-02-01T20:37:04.046Z,0.67
2023-02-01T20:38:03.991Z,0.68
2023-02-01T20:39:03.935Z,0.67
2023-02-01T20:40:04.446Z,0.68
2023-02-01T20:41:03.835Z,0.68
2023-02-01T20:42:03.791Z,0.68
2023-02-01T20:43:03.732Z,0.70
2023-02-01T20:44:03.692Z,0.70
2023-02-01T20:45:03.632Z,0.73
2023-02-01T20:46:03.581Z,0.72
2023-02-01T20:47:03.513Z,0.73
2023-02-01T20:48:03.467Z,0.72
2023-02-01T20:49:03.409Z,0.72
2023-02-01T20:50:03.371Z,0.71
2023-02-01T20:51:03.309Z,0.71
2023-02-01T20:52:03.268Z,0.69
2023-02-01T20:53:03.212Z,0.67
2023-02-01T20:54:03.163Z,0.67
2023-02-01T20:55:03.107Z,0.67
2023-02-01T20:56:03.054Z,0.67
2023-02-01T20:57:02.993Z,0.68
2023-02-01T20:58:02.974Z,0.70
2023-02-01T20:59:02.911Z,0.67
2023-02-01T21:00:02.857Z,0.67
2023-02-01T23:31:55.316Z,0.64
2023-02-01T23:32:55.100Z,0.64
2023-02-01T23:33:55.037Z,0.64
2023-02-01T23:34:54.983Z,0.66
2023-02-01T23:35:54.941Z,0.67
2023-02-01T23:36:54.868Z,0.71
2023-02-01T23:37:54.826Z,0.68
2023-02-01T23:38:54.765Z,0.65
2023-02-01T23:39:54.706Z,0.66
2023-02-01T23:40:54.646Z,0.65
2023-02-01T23:41:54.581Z,0.65
2023-02-01T23:42:54.538Z,0.66
2023-02-01T23:43:54.474Z,0.67
2023-02-01T23:44:54.415Z,0.66
2023-02-01T23:45:54.365Z,0.66
2023-02-01T23:46:54.306Z,0.65
2023-02-01T23:47:54.245Z,0.66
2023-02-01T23:48:54.184Z,0.66
2023-02-01T23:49:54.136Z,0.65
2023-02-01T23:50:54.074Z,0.64
2023-02-01T23:51:54.023Z,0.65
2023-02-01T23:52:53.975Z,0.63
2023-02-01T23:53:53.910Z,0.63
2023-02-01T23:54:53.876Z,0.63
2023-02-01T23:55:53.807Z,0.64
2023-02-01T23:56:53.769Z,0.64
2023-02-01T23:57:53.701Z,0.65
2023-02-01T23:58:53.645Z,0.65
2023-02-01T23:59:53.616Z,0.66
